createdAt,value
2019-06-01T00:01:53.311Z,11.80
2019-06-01T00:04:27.854Z,11.50
2019-06-01T00:07:02.199Z,11.40
2019-06-01T00:09:43.168Z,11.30
2019-06-01T00:12:17.481Z,11.50
2019-06-01T00:14:53.279Z,11.40
2019-06-01T00:17:27.481Z,11.30
2019-06-01T00:20:01.152Z,11.20
2019-06-01T00:22:35.139Z,11.40
2019-06-01T00:25:09.212Z,11.20
2019-06-01T00:27:43.001Z,11.20
2019-06-01T00:30:26.708Z,11.00
2019-06-01T00:32:53.145Z,11.00
2019-06-01T00:35:27.293Z,10.90
2019-06-01T00:38:01.219Z,10.90
2019-06-01T00:40:35.017Z,10.90
2019-06-01T00:43:08.959Z,11.00
2019-06-01T00:45:44.469Z,11.20
2019-06-01T00:48:18.330Z,11.30
2019-06-01T00:50:53.192Z,11.30
2019-06-01T00:53:27.099Z,11.20
2019-06-01T00:56:00.922Z,11.00
2019-06-01T00:58:34.909Z,11.10
2019-06-01T01:01:08.639Z,11.00
2019-06-01T01:03:42.378Z,10.90
2019-06-01T01:06:16.441Z,11.00
2019-06-01T01:08:50.994Z,11.00
2019-06-01T01:11:24.920Z,10.80
2019-06-01T01:13:58.727Z,11.00
2019-06-01T01:16:32.591Z,11.10
2019-06-01T01:19:07.430Z,10.60
2019-06-01T01:21:56.352Z,10.90
2019-06-01T01:24:30.531Z,11.10
2019-06-01T01:27:04.921Z,10.80
2019-06-01T01:29:38.632Z,10.90
2019-06-01T01:32:12.501Z,11.00
2019-06-01T01:34:47.388Z,10.80
2019-06-01T01:37:21.400Z,10.80
2019-06-01T01:39:56.300Z,10.60
2019-06-01T01:42:30.009Z,10.50
2019-06-01T01:45:04.783Z,10.60
2019-06-01T01:47:38.482Z,10.70
2019-06-01T01:50:12.742Z,10.40
2019-06-01T01:52:46.488Z,10.40
2019-06-01T01:55:20.260Z,10.70
2019-06-01T01:57:55.221Z,10.90
2019-06-01T02:00:45.609Z,11.00
2019-06-01T02:03:20.513Z,10.90
2019-06-01T02:05:54.971Z,11.00
2019-06-01T02:08:28.728Z,10.80
2019-06-01T02:11:02.453Z,10.80
2019-06-01T02:13:37.038Z,10.90
2019-06-01T02:16:10.757Z,11.10
2019-06-01T02:18:44.709Z,11.00
2019-06-01T02:21:18.468Z,11.10
2019-06-01T02:23:52.942Z,11.10
2019-06-01T02:26:26.628Z,11.20
2019-06-01T02:29:02.214Z,11.30
2019-06-01T02:31:41.802Z,11.10
2019-06-01T02:34:11.271Z,11.20
2019-06-01T02:36:45.251Z,11.40
2019-06-01T02:39:19.363Z,11.40
2019-06-01T02:41:54.804Z,11.00
2019-06-01T02:44:28.768Z,11.20
2019-06-01T02:47:04.020Z,11.10
2019-06-01T02:49:38.161Z,11.00
2019-06-01T02:52:11.961Z,11.30
2019-06-01T02:54:45.762Z,11.30
2019-06-01T02:57:20.205Z,11.40
2019-06-01T02:59:54.838Z,11.40
2019-06-01T03:02:28.519Z,11.40
2019-06-01T03:05:03.291Z,11.20
2019-06-01T03:07:41.224Z,11.20
2019-06-01T03:10:15.721Z,11.10
2019-06-01T03:12:54.966Z,11.10
2019-06-01T03:15:32.942Z,11.20
2019-06-01T03:18:08.248Z,11.40
2019-06-01T03:20:45.651Z,11.40
2019-06-01T03:23:22.408Z,11.40
2019-06-01T03:25:57.212Z,11.30
2019-06-01T03:28:34.627Z,11.10
2019-06-01T03:31:13.342Z,11.30
2019-06-01T03:33:47.720Z,11.50
2019-06-01T03:36:22.031Z,11.50
2019-06-01T03:38:57.478Z,11.40
2019-06-01T03:41:32.704Z,11.80
2019-06-01T03:44:06.869Z,11.80
2019-06-01T03:46:41.450Z,11.90
2019-06-01T03:49:15.097Z,12.00
2019-06-01T03:51:48.808Z,12.20
2019-06-01T03:54:22.572Z,12.30
2019-06-01T03:56:56.872Z,12.30
2019-06-01T03:59:30.638Z,12.40
2019-06-01T04:02:05.105Z,12.10
2019-06-01T04:04:39.341Z,12.20
2019-06-01T04:07:13.138Z,12.40
2019-06-01T04:09:46.920Z,12.50
2019-06-01T04:12:20.748Z,12.60
2019-06-01T04:14:54.519Z,12.80
2019-06-01T04:17:28.831Z,12.80
2019-06-01T04:20:03.859Z,12.80
2019-06-01T04:22:37.789Z,12.90
2019-06-01T04:25:12.330Z,13.00
2019-06-01T04:27:46.782Z,13.10
2019-06-01T04:30:25.175Z,13.30
2019-06-01T04:32:58.986Z,13.30
2019-06-01T04:35:32.689Z,13.40
2019-06-01T04:38:07.178Z,13.50
2019-06-01T04:40:41.790Z,13.60
2019-06-01T04:43:15.590Z,13.70
2019-06-01T04:45:50.796Z,13.90
2019-06-01T04:48:25.007Z,14.00
2019-06-01T04:50:58.902Z,14.10
2019-06-01T04:53:32.777Z,14.20
2019-06-01T04:56:07.014Z,14.30
2019-06-01T04:58:41.412Z,14.40
2019-06-01T05:01:15.634Z,14.50
2019-06-01T05:03:49.906Z,14.60
2019-06-01T05:06:25.483Z,14.70
2019-06-01T05:08:59.169Z,14.80
2019-06-01T05:11:32.890Z,14.90
2019-06-01T05:14:07.549Z,15.00
2019-06-01T05:16:41.981Z,15.10
2019-06-01T05:19:16.606Z,15.10
2019-06-01T05:21:51.078Z,15.20
2019-06-01T05:24:25.382Z,15.30
2019-06-01T05:27:00.579Z,15.40
2019-06-01T05:29:36.077Z,15.50
2019-06-01T05:32:10.483Z,15.60
2019-06-01T05:34:44.646Z,15.80
2019-06-01T05:37:18.871Z,15.90
2019-06-01T05:39:53.843Z,16.00
2019-06-01T05:42:27.627Z,16.10
2019-06-01T05:45:01.412Z,16.30
2019-06-01T05:47:35.232Z,16.40
2019-06-01T05:50:10.625Z,16.50
2019-06-01T05:52:45.262Z,16.60
2019-06-01T05:55:19.327Z,16.70
2019-06-01T05:57:54.448Z,16.80
2019-06-01T06:00:45.724Z,16.80
2019-06-01T06:03:23.484Z,16.90
2019-06-01T06:05:55.266Z,17.10
2019-06-01T06:08:29.016Z,17.20
2019-06-01T06:11:03.456Z,17.20
2019-06-01T06:16:30.082Z,17.40
2019-06-01T06:19:04.262Z,17.60
2019-06-01T06:21:38.364Z,17.70
2019-06-01T06:24:12.225Z,17.80
2019-06-01T06:26:46.129Z,17.80
2019-06-01T06:29:20.967Z,18.00
2019-06-01T06:31:55.280Z,18.10
2019-06-01T06:34:29.537Z,18.30
2019-06-01T06:37:03.788Z,18.40
2019-06-01T06:39:37.676Z,18.50
2019-06-01T06:42:11.478Z,18.60
2019-06-01T06:44:45.657Z,18.70
2019-06-01T06:47:27.517Z,18.80
2019-06-01T06:50:01.690Z,19.00
2019-06-01T06:52:36.028Z,19.10
2019-06-01T06:55:10.318Z,19.00
2019-06-01T06:57:45.659Z,19.10
2019-06-01T07:00:20.636Z,19.20
2019-06-01T07:02:55.243Z,19.30
2019-06-01T07:05:31.399Z,19.40
2019-06-01T07:08:04.389Z,19.70
2019-06-01T07:10:38.148Z,19.70
2019-06-01T07:13:12.003Z,19.80
2019-06-01T07:15:57.523Z,19.90
2019-06-01T07:18:36.199Z,19.90
2019-06-01T07:21:34.140Z,19.90
2019-06-01T07:23:55.535Z,19.90
2019-06-01T07:26:29.271Z,19.90
2019-06-01T07:29:04.185Z,20.00
2019-06-01T07:31:41.461Z,20.10
2019-06-01T07:34:32.158Z,20.10
2019-06-01T07:36:52.754Z,20.20
2019-06-01T07:39:26.808Z,20.30
2019-06-01T07:42:00.707Z,20.30
2019-06-01T07:44:34.474Z,20.30
2019-06-01T07:47:08.128Z,20.40
2019-06-01T07:49:44.598Z,20.50
2019-06-01T07:52:20.244Z,20.50
2019-06-01T07:54:55.329Z,20.50
2019-06-01T07:57:29.800Z,20.40
2019-06-01T08:00:11.451Z,20.50
2019-06-01T08:02:45.500Z,20.50
2019-06-01T08:05:19.838Z,20.60
2019-06-01T08:07:55.642Z,20.80
2019-06-01T08:10:29.772Z,20.80
2019-06-01T08:13:03.429Z,20.70
2019-06-01T08:15:38.025Z,20.90
2019-06-01T08:18:12.075Z,20.90
2019-06-01T08:20:46.024Z,21.00
2019-06-01T08:23:20.359Z,21.30
2019-06-01T08:25:54.851Z,21.20
2019-06-01T08:28:29.139Z,21.30
2019-06-01T08:31:02.978Z,21.20
2019-06-01T08:33:36.802Z,21.20
2019-06-01T08:36:10.760Z,20.90
2019-06-01T08:38:44.938Z,20.90
2019-06-01T08:41:23.244Z,21.00
2019-06-01T08:43:57.580Z,21.20
2019-06-01T08:46:31.899Z,21.10
2019-06-01T08:49:06.248Z,21.10
2019-06-01T08:51:40.459Z,21.20
2019-06-01T08:54:14.661Z,21.30
2019-06-01T08:56:49.260Z,21.30
2019-06-01T08:59:24.230Z,21.40
2019-06-01T09:01:58.555Z,21.50
2019-06-01T09:04:32.795Z,21.50
2019-06-01T09:07:08.715Z,21.50
2019-06-01T09:09:43.094Z,21.60
2019-06-01T09:12:17.120Z,21.70
2019-06-01T12:00:18.951Z,22.60
2019-06-01T12:02:53.219Z,22.60
2019-06-01T12:05:27.505Z,22.60
2019-06-01T12:08:02.670Z,22.50
2019-06-01T12:10:36.892Z,22.50
2019-06-01T12:13:10.669Z,22.50
2019-06-01T12:15:44.567Z,22.70
2019-06-01T12:18:18.334Z,22.60
2019-06-01T12:20:53.645Z,22.60
2019-06-01T12:23:27.275Z,22.70
2019-06-01T12:26:01.166Z,22.50
2019-06-01T12:28:35.259Z,22.60
2019-06-01T12:31:09.281Z,22.40
2019-06-01T12:33:44.184Z,22.40
2019-06-01T12:36:19.273Z,22.20
2019-06-01T12:38:53.490Z,22.20
2019-06-01T12:41:27.203Z,22.20
2019-06-01T12:44:13.442Z,22.10
2019-06-01T12:46:47.270Z,22.20
2019-06-01T12:49:20.989Z,22.20
2019-06-01T12:51:55.168Z,22.20
2019-06-01T12:54:28.967Z,22.20
2019-06-01T12:57:02.746Z,22.30
2019-06-01T12:59:36.442Z,22.30
2019-06-01T13:02:10.240Z,22.40
2019-06-01T13:04:44.931Z,22.30
2019-06-01T13:07:18.648Z,22.40
2019-06-01T13:09:53.571Z,22.50
2019-06-01T13:18:57.515Z,23.20
2019-06-01T13:21:31.851Z,23.70
2019-06-01T13:24:06.088Z,24.50
2019-06-01T13:26:41.742Z,25.10
2019-06-01T13:29:15.599Z,25.40
2019-06-01T13:31:50.527Z,25.40
2019-06-01T13:44:23.511Z,26.00
2019-06-01T13:46:57.336Z,26.40
2019-06-01T13:49:32.162Z,25.90
2019-06-01T13:52:05.971Z,25.10
2019-06-01T13:54:41.991Z,24.60
2019-06-01T13:57:18.153Z,24.20
2019-06-01T13:59:52.969Z,24.40
2019-06-01T14:02:26.851Z,24.60
2019-06-01T14:05:00.632Z,24.50
2019-06-01T14:07:34.421Z,24.10
2019-06-01T14:10:09.299Z,23.90
2019-06-01T14:12:43.411Z,23.70
2019-06-01T14:15:18.030Z,23.50
2019-06-01T14:17:52.309Z,23.40
2019-06-01T14:20:27.676Z,23.40
2019-06-01T14:23:01.477Z,23.40
2019-06-01T14:25:35.235Z,23.30
2019-06-01T14:28:09.069Z,23.50
2019-06-01T14:30:43.630Z,23.60
2019-06-01T14:33:17.333Z,23.70
2019-06-01T14:35:52.752Z,23.70
2019-06-01T14:38:27.638Z,23.70
2019-06-01T14:41:01.351Z,23.90
2019-06-01T14:43:40.242Z,23.80
2019-06-01T14:46:13.898Z,23.90
2019-06-01T14:48:47.649Z,24.20
2019-06-01T14:51:21.355Z,25.20
2019-06-01T14:53:55.788Z,25.90
2019-06-01T14:56:29.718Z,26.40
2019-06-01T14:59:03.452Z,25.80
2019-06-01T15:01:37.291Z,25.00
2019-06-01T15:04:12.031Z,24.50
2019-06-01T15:06:46.337Z,24.50
2019-06-01T15:09:20.272Z,24.80
2019-06-01T15:11:54.501Z,24.30
2019-06-01T15:14:28.189Z,24.20
2019-06-01T15:17:02.373Z,24.10
2019-06-01T15:19:36.254Z,24.10
2019-06-01T15:22:10.054Z,23.90
2019-06-01T15:24:44.010Z,23.70
2019-06-01T15:27:35.862Z,23.80
2019-06-01T15:30:13.392Z,23.80
2019-06-01T15:32:47.323Z,24.80
2019-06-01T15:35:21.085Z,24.10
2019-06-01T15:37:59.827Z,23.70
2019-06-01T15:40:33.391Z,23.50
2019-06-01T15:43:07.496Z,23.50
2019-06-01T15:45:41.410Z,23.70
2019-06-01T15:48:15.289Z,24.40
2019-06-01T15:50:49.063Z,23.70
2019-06-01T15:53:22.881Z,24.70
2019-06-01T15:55:56.790Z,25.50
2019-06-01T15:58:30.902Z,26.10
2019-06-01T16:01:05.104Z,26.30
2019-06-01T16:03:38.904Z,26.80
2019-06-01T16:06:13.712Z,27.30
2019-06-01T16:08:47.601Z,27.50
2019-06-01T16:11:21.284Z,27.20
2019-06-01T16:13:57.802Z,26.80
2019-06-01T16:16:31.954Z,26.50
2019-06-01T16:19:07.903Z,25.90
2019-06-01T16:21:41.231Z,25.60
2019-06-01T16:24:14.937Z,25.20
2019-06-01T16:26:48.592Z,25.00
2019-06-01T16:29:22.882Z,24.70
2019-06-01T16:31:56.732Z,24.50
2019-06-01T16:34:30.543Z,24.40
2019-06-01T16:37:05.319Z,24.30
2019-06-01T16:39:39.142Z,24.20
2019-06-01T16:42:13.521Z,24.20
2019-06-01T16:44:47.402Z,24.00
2019-06-01T16:47:21.099Z,24.00
2019-06-01T16:49:55.780Z,23.90
2019-06-01T16:52:30.164Z,23.80
2019-06-01T16:55:04.998Z,23.70
2019-06-01T16:57:39.803Z,23.60
2019-06-01T17:00:18.238Z,23.40
2019-06-01T17:02:51.919Z,23.30
2019-06-01T17:05:25.617Z,23.30
2019-06-01T17:08:00.691Z,23.10
2019-06-01T17:14:12.982Z,23.10
2019-06-01T17:16:47.170Z,23.00
2019-06-01T17:19:20.991Z,23.00
2019-06-01T17:21:55.162Z,23.00
2019-06-01T17:24:29.229Z,22.90
2019-06-01T17:27:03.968Z,22.70
2019-06-01T17:29:38.037Z,22.60
2019-06-01T17:39:14.309Z,22.40
2019-06-01T17:41:48.037Z,22.30
2019-06-01T17:44:21.800Z,22.10
2019-06-01T17:46:55.634Z,21.90
2019-06-01T17:49:31.625Z,21.60
2019-06-01T17:52:05.971Z,21.40
2019-06-01T17:54:39.749Z,21.20
2019-06-01T17:57:22.460Z,20.90
2019-06-01T17:59:57.958Z,20.80
2019-06-01T18:02:31.841Z,20.50
2019-06-01T18:05:08.311Z,20.60
2019-06-01T18:07:42.007Z,20.50
2019-06-01T18:10:16.873Z,20.50
2019-06-01T18:15:45.478Z,20.20
2019-06-01T18:18:19.763Z,19.90
2019-06-01T18:20:53.807Z,19.70
2019-06-01T18:23:27.597Z,19.40
2019-06-01T18:26:02.536Z,19.50
2019-06-01T18:28:36.519Z,19.50
2019-06-01T18:31:10.735Z,19.50
2019-06-01T18:33:44.834Z,19.40
2019-06-01T18:36:18.746Z,19.40
2019-06-01T18:38:53.387Z,19.20
2019-06-01T18:41:27.066Z,19.00
2019-06-01T18:44:00.863Z,18.80
2019-06-01T18:46:34.889Z,18.70
2019-06-01T18:49:09.880Z,18.50
2019-06-01T18:51:50.716Z,18.50
2019-06-01T18:54:24.452Z,18.50
2019-06-01T18:57:12.330Z,18.50
2019-06-01T18:59:41.371Z,18.40
2019-06-01T19:02:15.057Z,18.20
2019-06-01T19:04:48.861Z,18.20
2019-06-01T19:07:25.657Z,17.80
2019-06-01T19:09:59.550Z,17.80
2019-06-01T19:12:33.367Z,17.60
2019-06-01T19:15:13.858Z,17.60
2019-06-01T19:17:49.455Z,17.60
2019-06-01T19:20:23.242Z,17.60
2019-06-01T19:22:57.156Z,17.40
2019-06-01T19:25:31.068Z,17.20
2019-06-01T19:28:04.802Z,17.10
2019-06-01T19:30:44.229Z,17.20
2019-06-01T19:33:19.512Z,17.20
2019-06-01T19:35:54.500Z,16.80
2019-06-01T19:38:31.523Z,16.70
2019-06-01T19:41:07.413Z,16.80
2019-06-01T19:43:42.999Z,16.90
2019-06-01T19:46:17.948Z,16.90
2019-06-01T19:48:51.956Z,16.80
2019-06-01T19:51:25.809Z,16.80
2019-06-01T19:54:00.173Z,16.20
2019-06-01T19:56:34.175Z,16.30
2019-06-01T19:59:11.796Z,16.40
2019-06-01T20:01:45.723Z,16.50
2019-06-01T20:04:19.650Z,16.40
2019-06-01T20:06:53.441Z,16.30
2019-06-01T20:09:27.271Z,16.20
2019-06-01T20:12:11.347Z,16.00
2019-06-01T20:14:40.270Z,15.90
2019-06-01T20:17:14.020Z,15.60
2019-06-01T20:19:47.786Z,15.70
2019-06-01T20:22:22.104Z,15.80
2019-06-01T20:24:55.900Z,15.50
2019-06-01T20:27:30.121Z,15.70
2019-06-01T20:30:11.705Z,15.70
2019-06-01T20:32:46.107Z,15.50
2019-06-01T20:35:22.163Z,15.60
2019-06-01T20:37:56.227Z,15.40
2019-06-01T20:40:30.071Z,15.50
2019-06-01T20:43:04.061Z,15.60
2019-06-01T20:45:38.138Z,15.70
2019-06-01T20:48:13.385Z,15.80
2019-06-01T20:50:47.902Z,15.70
2019-06-01T20:53:23.246Z,15.70
2019-06-01T20:55:57.111Z,15.50
2019-06-01T20:58:30.870Z,15.50
2019-06-01T21:01:06.741Z,15.20
2019-06-01T21:03:40.406Z,15.10
2019-06-01T21:06:14.206Z,15.10
2019-06-01T21:08:47.902Z,15.10
2019-06-01T21:11:22.480Z,15.10
2019-06-01T21:13:56.199Z,15.20
2019-06-01T21:16:30.016Z,15.00
2019-06-01T21:19:03.720Z,14.90
2019-06-01T21:21:37.529Z,15.00
2019-06-01T21:24:11.172Z,15.00
2019-06-01T21:26:45.626Z,15.20
2019-06-01T21:29:19.422Z,15.30
2019-06-01T21:31:53.254Z,15.30
2019-06-01T21:34:27.041Z,15.20
2019-06-01T21:37:00.863Z,15.20
2019-06-01T21:39:35.358Z,15.20
2019-06-01T21:42:09.046Z,15.30
2019-06-01T21:44:42.810Z,15.00
2019-06-01T21:47:17.590Z,14.90
2019-06-01T21:49:52.223Z,14.70
2019-06-01T21:52:26.428Z,14.60
2019-06-01T21:55:01.874Z,14.70
2019-06-01T21:57:35.698Z,14.50
2019-06-01T22:00:18.570Z,14.40
2019-06-01T22:02:54.862Z,14.30
2019-06-01T22:05:29.270Z,14.30
2019-06-01T22:08:03.952Z,14.30
2019-06-01T22:10:37.673Z,14.40
2019-06-01T22:13:18.809Z,14.40
2019-06-01T22:15:46.962Z,14.30
2019-06-01T22:18:21.603Z,14.10
2019-06-01T22:20:55.468Z,14.10
2019-06-01T22:23:29.260Z,14.10
2019-06-01T22:26:04.220Z,14.00
2019-06-01T22:28:38.351Z,13.90
2019-06-01T22:31:12.085Z,13.90
2019-06-01T22:33:46.884Z,13.90
2019-06-01T22:36:20.563Z,13.90
2019-06-01T22:38:55.012Z,13.80
2019-06-01T22:41:29.242Z,13.70
2019-06-01T22:44:03.114Z,13.70
2019-06-01T22:46:37.400Z,13.80
2019-06-01T22:49:11.874Z,13.70
2019-06-01T22:51:45.669Z,13.90
2019-06-01T22:54:20.954Z,14.00
2019-06-01T22:56:54.882Z,13.90
2019-06-01T22:59:28.765Z,13.80
2019-06-01T23:02:02.532Z,13.50
2019-06-01T23:04:36.362Z,13.60
2019-06-01T23:07:12.096Z,13.70
2019-06-01T23:09:47.692Z,13.50
2019-06-01T23:12:21.429Z,13.40
2019-06-01T23:14:56.032Z,13.50
2019-06-01T23:17:29.962Z,13.60
2019-06-01T23:20:05.491Z,13.60
2019-06-01T23:22:39.201Z,13.30
2019-06-01T23:25:12.909Z,13.40
2019-06-01T23:27:47.478Z,13.20
2019-06-01T23:30:22.010Z,13.30
2019-06-01T23:32:55.705Z,13.30
2019-06-01T23:35:30.589Z,13.20
2019-06-01T23:38:04.460Z,13.00
2019-06-01T23:40:38.280Z,13.00
2019-06-01T23:43:12.050Z,13.00
2019-06-01T23:45:45.871Z,13.10
2019-06-01T23:48:42.889Z,13.10
2019-06-01T23:51:17.218Z,13.10
2019-06-01T23:53:52.508Z,12.90
2019-06-01T23:56:26.269Z,12.90
2019-06-01T23:59:03.858Z,12.90
